Time;durP1;ratioP1;P1;durP2;ratioP2;P2;SDS_P1;SDS_P2;PMS_P1;PMS_P2;Temp;Humidity;BMP_temperature;BMP_pressure;BME280_temperature;BME280_humidity;BME280_pressure;Samples;Min_cycle;Max_cycle;Signal;HPM_P1;HPM_P2
2024/01/19 00:00:36;;;;;;;40.40;19.17;;;;;;;;;;4961589;28;20043;-81
2024/01/19 00:03:03;;;;;;;33.47;17.10;;;;;;;;;;4996673;28;20050;-81
2024/01/19 00:05:30;;;;;;;38.00;20.05;;;;;;;;;;4977489;28;20062;-81
2024/01/19 00:07:57;;;;;;;36.22;19.23;;;;;;;;;;4996896;28;20054;-81
2024/01/19 00:10:24;;;;;;;30.85;17.42;;;;;;;;;;4977110;28;20055;-80
2024/01/19 00:12:51;;;;;;;35.72;17.80;;;;;;;;;;4977326;28;20108;-80
2024/01/19 00:15:18;;;;;;;34.67;18.15;;;;;;;;;;4996043;28;20062;-80
2024/01/19 00:17:51;;;;;;;35.78;18.88;;;;;;;;;;4980739;28;20086;-81
2024/01/19 00:20:18;;;;;;;33.33;17.35;;;;;;;;;;4980730;28;20054;-79
2024/01/19 00:22:45;;;;;;;30.98;17.67;;;;;;;;;;4997475;28;20058;-79
2024/01/19 00:25:12;;;;;;;36.33;18.48;;;;;;;;;;4996600;28;20088;-79
2024/01/19 00:27:38;;;;;;;33.10;17.17;;;;;;;;;;4996278;28;20505;-79
2024/01/19 00:30:06;;;;;;;38.20;17.77;;;;;;;;;;4996307;28;20054;-79
2024/01/19 00:32:32;;;;;;;33.47;17.73;;;;;;;;;;4960438;28;20062;-79
2024/01/19 00:34:59;;;;;;;34.78;17.65;;;;;;;;;;4978118;28;20081;-79
2024/01/19 00:37:26;;;;;;;33.22;17.83;;;;;;;;;;5001805;28;20054;-80
2024/01/19 00:39:53;;;;;;;42.97;19.10;;;;;;;;;;4983189;28;20082;-80
2024/01/19 00:42:20;;;;;;;39.30;20.02;;;;;;;;;;5002007;28;20054;-79
2024/01/19 00:44:46;;;;;;;39.20;18.75;;;;;;;;;;5002807;28;20073;-80
2024/01/19 00:47:13;;;;;;;36.47;18.80;;;;;;;;;;4983811;28;20142;-80
2024/01/19 00:49:40;;;;;;;38.15;18.73;;;;;;;;;;4982576;28;20072;-80
2024/01/19 00:52:07;;;;;;;35.95;17.30;;;;;;;;;;4979293;28;20751;-79
2024/01/19 00:54:34;;;;;;;33.63;18.02;;;;;;;;;;4959058;28;20132;-80
2024/01/19 00:57:02;;;;;;;35.72;17.77;;;;;;;;;;4975445;28;20654;-80
2024/01/19 00:59:29;;;;;;;32.85;17.15;;;;;;;;;;4974710;28;20098;-80
2024/01/19 01:01:55;;;;;;;37.30;18.17;;;;;;;;;;4959639;28;20051;-80
2024/01/19 01:04:22;;;;;;;42.70;18.75;;;;;;;;;;4977168;28;20051;-80
2024/01/19 01:06:49;;;;;;;35.90;18.92;;;;;;;;;;4972873;28;20133;-80
2024/01/19 01:09:16;;;;;;;35.13;19.00;;;;;;;;;;4985269;28;20124;-80
2024/01/19 01:11:43;;;;;;;35.55;17.92;;;;;;;;;;5002556;28;20078;-80
2024/01/19 01:14:10;;;;;;;35.78;18.67;;;;;;;;;;4983846;28;20054;-80
2024/01/19 01:16:36;;;;;;;30.60;16.58;;;;;;;;;;4998594;28;20116;-79
2024/01/19 01:19:03;;;;;;;37.40;18.73;;;;;;;;;;4982460;28;20552;-80
2024/01/19 01:21:30;;;;;;;33.95;17.92;;;;;;;;;;4982742;28;20735;-80
2024/01/19 01:23:57;;;;;;;30.02;17.48;;;;;;;;;;4964438;28;20283;-80
2024/01/19 01:26:24;;;;;;;31.98;17.88;;;;;;;;;;4980073;28;20058;-80
2024/01/19 01:28:51;;;;;;;33.95;17.88;;;;;;;;;;4979783;28;20055;-80
2024/01/19 01:31:17;;;;;;;35.05;19.02;;;;;;;;;;4978612;28;20379;-80
2024/01/19 01:33:44;;;;;;;31.02;18.35;;;;;;;;;;4979621;28;20054;-81
2024/01/19 01:36:11;;;;;;;30.38;17.23;;;;;;;;;;4964617;28;20050;-81
2024/01/19 01:38:38;;;;;;;36.72;18.42;;;;;;;;;;5000001;28;20502;-81
2024/01/19 01:41:05;;;;;;;38.22;17.92;;;;;;;;;;5001980;28;20050;-81
2024/01/19 01:43:32;;;;;;;34.15;18.38;;;;;;;;;;4984215;28;20046;-81
2024/01/19 01:45:59;;;;;;;34.20;19.48;;;;;;;;;;5000766;28;20465;-80
2024/01/19 01:48:26;;;;;;;34.85;17.77;;;;;;;;;;4999994;28;20121;-81
2024/01/19 01:50:54;;;;;;;38.28;17.65;;;;;;;;;;4982467;28;20061;-80
2024/01/19 01:53:21;;;;;;;33.50;18.33;;;;;;;;;;4983875;28;20060;-80
2024/01/19 01:55:48;;;;;;;30.23;16.65;;;;;;;;;;4985500;28;20060;-81
2024/01/19 01:58:16;;;;;;;34.75;18.50;;;;;;;;;;4964754;28;20086;-80
2024/01/19 02:00:43;;;;;;;33.45;18.15;;;;;;;;;;4963358;28;20058;-80
2024/01/19 02:03:10;;;;;;;31.05;17.73;;;;;;;;;;4999123;28;20054;-80
2024/01/19 02:05:37;;;;;;;31.55;17.85;;;;;;;;;;4985752;28;20050;-80
2024/01/19 02:08:04;;;;;;;32.17;17.70;;;;;;;;;;4986486;28;20051;-80
2024/01/19 02:10:31;;;;;;;32.97;17.17;;;;;;;;;;4967757;28;20055;-79
2024/01/19 02:12:58;;;;;;;33.47;17.33;;;;;;;;;;4968340;28;20058;-79
2024/01/19 02:15:26;;;;;;;33.97;17.52;;;;;;;;;;4970743;28;20061;-80
2024/01/19 02:17:54;;;;;;;33.55;16.83;;;;;;;;;;4983816;28;20054;-79
2024/01/19 02:20:21;;;;;;;34.22;17.40;;;;;;;;;;4967816;28;20050;-79
2024/01/19 02:22:49;;;;;;;34.92;17.60;;;;;;;;;;4985674;28;20067;-79
2024/01/19 02:25:16;;;;;;;36.20;18.38;;;;;;;;;;4966226;28;20082;-79
2024/01/19 02:27:42;;;;;;;36.13;18.45;;;;;;;;;;4966118;28;20064;-79
2024/01/19 02:30:10;;;;;;;30.85;19.15;;;;;;;;;;5001762;28;20105;-79
2024/01/19 02:32:37;;;;;;;30.65;19.85;;;;;;;;;;4981879;28;20110;-79
2024/01/19 02:35:05;;;;;;;33.05;19.45;;;;;;;;;;4985864;28;20051;-79
2024/01/19 02:37:32;;;;;;;39.85;18.95;;;;;;;;;;4969394;28;20085;-79
2024/01/19 02:40:00;;;;;;;34.70;19.92;;;;;;;;;;4983742;28;20069;-79
2024/01/19 02:42:29;;;;;;;38.42;19.48;;;;;;;;;;5000571;28;20050;-79
2024/01/19 02:44:57;;;;;;;34.67;17.92;;;;;;;;;;4967106;28;20090;-79
2024/01/19 02:47:24;;;;;;;35.03;20.05;;;;;;;;;;4984894;28;20069;-79
2024/01/19 02:49:52;;;;;;;31.70;18.63;;;;;;;;;;4966876;28;20058;-79
2024/01/19 02:52:19;;;;;;;30.17;17.00;;;;;;;;;;4985997;28;20109;-79
2024/01/19 02:54:47;;;;;;;31.25;17.75;;;;;;;;;;4982532;28;20054;-79
2024/01/19 02:57:13;;;;;;;34.35;18.65;;;;;;;;;;4970242;28;20059;-79
2024/01/19 02:59:40;;;;;;;38.90;20.38;;;;;;;;;;4972912;28;20064;-79
2024/01/19 03:02:07;;;;;;;36.88;20.40;;;;;;;;;;4988688;28;20058;-79
2024/01/19 03:04:34;;;;;;;38.60;17.70;;;;;;;;;;5004929;28;20054;-79
2024/01/19 03:07:01;;;;;;;31.77;17.45;;;;;;;;;;4970779;28;20114;-79
2024/01/19 03:09:27;;;;;;;32.92;17.80;;;;;;;;;;4984748;28;20078;-79
2024/01/19 03:11:54;;;;;;;34.88;18.40;;;;;;;;;;5001767;28;20084;-78
2024/01/19 03:14:21;;;;;;;33.05;18.75;;;;;;;;;;4970789;28;20061;-80
2024/01/19 03:16:48;;;;;;;29.73;17.13;;;;;;;;;;4984076;28;20089;-80
2024/01/19 03:19:16;;;;;;;31.67;18.13;;;;;;;;;;5003133;28;20058;-80
2024/01/19 03:21:43;;;;;;;33.15;18.02;;;;;;;;;;4994649;28;20055;-80
2024/01/19 03:24:10;;;;;;;33.50;16.85;;;;;;;;;;4968694;28;20054;-81
2024/01/19 03:26:36;;;;;;;35.22;18.95;;;;;;;;;;4999624;28;20058;-80
2024/01/19 03:29:03;;;;;;;38.25;19.10;;;;;;;;;;4999718;28;20058;-81
2024/01/19 03:31:30;;;;;;;31.23;17.30;;;;;;;;;;4967693;28;20137;-80
2024/01/19 03:33:57;;;;;;;30.13;16.70;;;;;;;;;;5000167;28;20050;-80
2024/01/19 03:36:24;;;;;;;37.50;18.25;;;;;;;;;;4981409;28;20065;-81
2024/01/19 03:38:50;;;;;;;31.27;17.17;;;;;;;;;;4968448;28;20062;-81
2024/01/19 03:41:17;;;;;;;33.70;18.60;;;;;;;;;;4984762;28;20054;-81
2024/01/19 03:43:44;;;;;;;33.20;17.42;;;;;;;;;;4993611;28;20117;-81
2024/01/19 03:46:11;;;;;;;36.50;18.75;;;;;;;;;;4998416;28;20126;-81
2024/01/19 03:48:38;;;;;;;33.03;17.85;;;;;;;;;;5003959;28;20085;-81
2024/01/19 03:51:05;;;;;;;37.38;18.23;;;;;;;;;;4987554;28;20462;-81
2024/01/19 03:53:31;;;;;;;37.13;17.95;;;;;;;;;;4971621;28;20061;-80
2024/01/19 03:55:58;;;;;;;34.92;17.75;;;;;;;;;;4992755;28;20058;-80
2024/01/19 03:58:25;;;;;;;38.17;19.05;;;;;;;;;;5004994;28;20081;-80
2024/01/19 04:00:52;;;;;;;34.35;19.42;;;;;;;;;;4985927;28;20514;-81
2024/01/19 04:03:19;;;;;;;28.67;16.73;;;;;;;;;;4969420;28;20050;-81
2024/01/19 04:05:46;;;;;;;30.02;17.45;;;;;;;;;;4985700;28;20061;-81
2024/01/19 04:08:14;;;;;;;34.65;17.25;;;;;;;;;;5002251;28;20078;-81
2024/01/19 04:10:40;;;;;;;33.03;18.33;;;;;;;;;;4981864;28;20068;-81
2024/01/19 04:13:07;;;;;;;28.30;15.98;;;;;;;;;;4984711;28;20089;-80
2024/01/19 04:15:34;;;;;;;29.65;16.50;;;;;;;;;;4968887;28;20101;-81
2024/01/19 04:18:01;;;;;;;35.10;18.25;;;;;;;;;;4985026;28;20054;-81
2024/01/19 04:20:28;;;;;;;34.42;18.60;;;;;;;;;;4980971;28;20061;-81
2024/01/19 04:22:55;;;;;;;32.13;17.95;;;;;;;;;;4966402;28;20585;-81
2024/01/19 04:25:21;;;;;;;32.38;18.27;;;;;;;;;;4965895;28;20093;-81
2024/01/19 04:27:48;;;;;;;33.53;16.65;;;;;;;;;;4977932;28;20055;-81
2024/01/19 04:30:15;;;;;;;33.28;18.23;;;;;;;;;;4984768;28;20100;-81
2024/01/19 04:32:42;;;;;;;32.70;18.15;;;;;;;;;;4965867;28;20051;-79
2024/01/19 04:35:09;;;;;;;31.50;18.00;;;;;;;;;;5001222;28;20426;-80
2024/01/19 04:37:36;;;;;;;29.50;16.65;;;;;;;;;;4998895;28;20059;-79
2024/01/19 04:40:03;;;;;;;24.25;13.80;;;;;;;;;;4975663;28;20112;-79
2024/01/19 04:42:29;;;;;;;35.00;17.75;;;;;;;;;;4974702;28;20118;-80
2024/01/19 04:44:56;;;;;;;27.88;15.45;;;;;;;;;;5000861;28;20058;-80
2024/01/19 04:47:23;;;;;;;31.63;17.20;;;;;;;;;;4991455;28;20109;-80
2024/01/19 04:49:50;;;;;;;34.42;18.30;;;;;;;;;;4972508;28;20058;-79
2024/01/19 04:52:16;;;;;;;32.72;16.80;;;;;;;;;;4972235;28;20113;-79
2024/01/19 04:54:43;;;;;;;41.17;19.27;;;;;;;;;;4973149;28;20087;-80
2024/01/19 04:57:10;;;;;;;33.63;18.30;;;;;;;;;;5005152;28;20074;-80
2024/01/19 04:59:37;;;;;;;34.78;18.52;;;;;;;;;;4986252;28;20053;-80
2024/01/19 05:02:04;;;;;;;33.22;18.92;;;;;;;;;;4995931;28;20089;-80
2024/01/19 05:04:30;;;;;;;36.20;19.85;;;;;;;;;;5000952;28;20058;-79
2024/01/19 05:06:57;;;;;;;41.78;19.48;;;;;;;;;;4985968;28;20100;-80
2024/01/19 05:09:25;;;;;;;33.45;18.25;;;;;;;;;;4986820;28;20086;-80
2024/01/19 05:11:51;;;;;;;34.08;17.80;;;;;;;;;;4995396;28;20093;-80
2024/01/19 05:14:18;;;;;;;30.83;18.63;;;;;;;;;;4994958;28;20054;-79
2024/01/19 05:16:45;;;;;;;33.28;18.65;;;;;;;;;;4982415;28;20117;-80
2024/01/19 05:19:12;;;;;;;32.30;17.92;;;;;;;;;;4971604;28;20061;-81
2024/01/19 05:21:39;;;;;;;33.50;16.75;;;;;;;;;;4980170;28;20102;-80
2024/01/19 05:24:05;;;;;;;31.50;18.90;;;;;;;;;;4977203;28;20082;-80
2024/01/19 05:26:32;;;;;;;37.05;18.63;;;;;;;;;;4977787;28;20116;-78
2024/01/19 05:28:59;;;;;;;37.85;19.00;;;;;;;;;;4978392;28;20062;-78
2024/01/19 05:31:26;;;;;;;31.55;18.77;;;;;;;;;;4977263;28;20146;-78
2024/01/19 05:33:53;;;;;;;38.13;19.52;;;;;;;;;;4979719;28;20058;-79
2024/01/19 05:36:20;;;;;;;35.00;20.60;;;;;;;;;;4975873;28;20046;-77
2024/01/19 05:38:47;;;;;;;45.72;22.73;;;;;;;;;;4959975;28;20055;-77
2024/01/19 05:41:20;;;;;;;39.05;20.48;;;;;;;;;;4994190;28;20054;-77
2024/01/19 05:43:47;;;;;;;37.15;18.35;;;;;;;;;;4975714;28;20062;-76
2024/01/19 05:46:14;;;;;;;32.33;17.40;;;;;;;;;;4964563;28;20746;-77
2024/01/19 05:48:41;;;;;;;35.05;19.48;;;;;;;;;;4985862;28;20081;-77
2024/01/19 05:51:15;;;;;;;39.47;17.95;;;;;;;;;;4972973;28;20065;-81
2024/01/19 05:53:42;;;;;;;30.30;17.23;;;;;;;;;;4970730;28;20925;-80
2024/01/19 05:56:09;;;;;;;34.03;18.60;;;;;;;;;;4969676;28;20120;-76
2024/01/19 05:58:36;;;;;;;33.42;18.25;;;;;;;;;;4969289;28;20058;-77
2024/01/19 06:01:03;;;;;;;29.50;17.90;;;;;;;;;;4960503;28;20050;-76
2024/01/19 06:03:30;;;;;;;31.27;17.15;;;;;;;;;;4958242;28;20104;-77
2024/01/19 06:05:56;;;;;;;30.45;17.70;;;;;;;;;;4989696;28;20140;-75
2024/01/19 06:08:23;;;;;;;34.92;19.42;;;;;;;;;;4978194;28;20081;-75
2024/01/19 06:10:50;;;;;;;30.55;17.52;;;;;;;;;;5008477;28;20081;-74
2024/01/19 06:13:17;;;;;;;36.45;18.73;;;;;;;;;;4998314;28;20039;-73
2024/01/19 06:15:44;;;;;;;35.50;19.80;;;;;;;;;;5011765;28;20054;-76
2024/01/19 06:18:11;;;;;;;35.95;18.85;;;;;;;;;;4990539;28;20058;-76
2024/01/19 06:20:41;;;;;;;35.75;17.50;;;;;;;;;;4977182;28;20054;-76
2024/01/19 06:23:09;;;;;;;31.80;16.40;;;;;;;;;;4957624;28;20101;-78
2024/01/19 06:25:36;;;;;;;31.58;17.25;;;;;;;;;;4959983;28;20105;-77
2024/01/19 06:28:04;;;;;;;34.63;16.48;;;;;;;;;;4983987;28;20054;-77
2024/01/19 06:30:30;;;;;;;32.22;16.17;;;;;;;;;;4974178;28;20050;-78
2024/01/19 06:32:57;;;;;;;30.30;15.50;;;;;;;;;;4975206;28;20124;-78
2024/01/19 06:35:24;;;;;;;37.85;15.40;;;;;;;;;;4985411;28;20054;-78
2024/01/19 06:37:51;;;;;;;31.05;16.15;;;;;;;;;;4992312;28;20054;-78
2024/01/19 06:40:18;;;;;;;30.85;15.60;;;;;;;;;;4975622;28;20065;-78
2024/01/19 06:42:45;;;;;;;32.30;15.75;;;;;;;;;;4988523;28;20051;-77
2024/01/19 06:45:15;;;;;;;30.08;15.02;;;;;;;;;;4982382;28;20130;-78
2024/01/19 06:47:42;;;;;;;30.17;16.05;;;;;;;;;;4960128;28;20089;-78
2024/01/19 06:50:09;;;;;;;23.70;13.63;;;;;;;;;;4978705;28;20054;-78
2024/01/19 06:52:36;;;;;;;25.33;13.60;;;;;;;;;;4962148;28;20057;-78
2024/01/19 06:55:04;;;;;;;27.67;15.07;;;;;;;;;;4975949;28;20581;-77
2024/01/19 06:57:31;;;;;;;26.08;15.32;;;;;;;;;;4960714;28;20062;-78
2024/01/19 06:59:57;;;;;;;30.77;14.98;;;;;;;;;;4996710;28;20082;-78
2024/01/19 07:02:24;;;;;;;34.67;15.50;;;;;;;;;;4995142;28;20068;-78
2024/01/19 07:04:51;;;;;;;32.65;15.10;;;;;;;;;;4977636;28;20055;-78
2024/01/19 07:07:18;;;;;;;25.30;14.65;;;;;;;;;;4978735;28;20050;-77
2024/01/19 07:09:44;;;;;;;28.38;15.57;;;;;;;;;;4979279;28;20094;-78
2024/01/19 07:12:14;;;;;;;24.50;14.40;;;;;;;;;;4978156;28;20085;-78
2024/01/19 07:14:41;;;;;;;28.92;14.82;;;;;;;;;;4975707;28;20054;-78
2024/01/19 07:17:08;;;;;;;24.80;14.27;;;;;;;;;;4988930;28;20062;-78
2024/01/19 07:19:37;;;;;;;27.88;15.52;;;;;;;;;;4987897;28;20793;-78
2024/01/19 07:22:04;;;;;;;27.30;15.57;;;;;;;;;;4984123;28;20285;-78
2024/01/19 07:24:32;;;;;;;30.85;17.15;;;;;;;;;;4985989;28;20058;-78
2024/01/19 07:26:59;;;;;;;33.70;16.00;;;;;;;;;;4979286;28;20058;-77
2024/01/19 07:29:26;;;;;;;31.75;14.98;;;;;;;;;;4978420;28;20063;-78
2024/01/19 07:31:54;;;;;;;26.27;15.55;;;;;;;;;;4992538;28;20058;-77
2024/01/19 07:34:21;;;;;;;28.92;14.55;;;;;;;;;;4978025;28;20054;-77
2024/01/19 07:36:48;;;;;;;24.25;15.57;;;;;;;;;;4979713;28;20050;-77
2024/01/19 07:39:15;;;;;;;32.25;16.52;;;;;;;;;;4989905;28;20054;-77
2024/01/19 07:41:42;;;;;;;28.98;15.27;;;;;;;;;;4982552;28;20502;-76
2024/01/19 07:44:08;;;;;;;27.70;15.13;;;;;;;;;;4967358;28;20050;-78
2024/01/19 07:46:35;;;;;;;26.90;15.63;;;;;;;;;;4983763;28;20171;-78
2024/01/19 07:49:02;;;;;;;28.23;15.57;;;;;;;;;;4983909;28;20069;-78
2024/01/19 07:51:29;;;;;;;32.35;15.55;;;;;;;;;;4981854;28;20061;-78
2024/01/19 07:53:58;;;;;;;25.23;15.05;;;;;;;;;;4980776;28;20082;-78
2024/01/19 07:56:25;;;;;;;31.73;15.35;;;;;;;;;;4977224;28;20053;-78
2024/01/19 07:58:52;;;;;;;26.23;14.57;;;;;;;;;;4985260;28;20054;-77
2024/01/19 08:01:19;;;;;;;32.75;16.00;;;;;;;;;;4984176;28;20077;-78
2024/01/19 08:03:46;;;;;;;31.10;15.70;;;;;;;;;;4984204;28;20462;-78
2024/01/19 08:06:12;;;;;;;27.50;15.82;;;;;;;;;;4964826;28;20082;-78
2024/01/19 08:08:39;;;;;;;22.55;13.23;;;;;;;;;;4985290;28;20050;-78
2024/01/19 08:11:06;;;;;;;27.88;13.80;;;;;;;;;;4997612;28;20561;-78
2024/01/19 08:13:33;;;;;;;23.65;12.70;;;;;;;;;;5001173;28;20050;-77
2024/01/19 08:16:00;;;;;;;28.15;14.43;;;;;;;;;;4998956;28;20497;-78
2024/01/19 08:18:33;;;;;;;24.30;13.27;;;;;;;;;;4982843;28;20109;-78
2024/01/19 08:21:03;;;;;;;24.15;13.63;;;;;;;;;;4993720;28;20058;-78
2024/01/19 08:23:30;;;;;;;25.92;13.23;;;;;;;;;;4996438;28;20065;-78
2024/01/19 08:25:57;;;;;;;23.85;13.60;;;;;;;;;;4965495;28;20062;-78
2024/01/19 08:28:27;;;;;;;22.27;13.95;;;;;;;;;;4991329;28;20054;-78
2024/01/19 08:30:54;;;;;;;27.73;14.02;;;;;;;;;;4980925;28;20417;-76
2024/01/19 08:33:21;;;;;;;23.92;13.48;;;;;;;;;;4997941;28;20086;-78
2024/01/19 08:35:49;;;;;;;26.50;13.93;;;;;;;;;;4982783;28;20423;-78
2024/01/19 08:38:17;;;;;;;25.10;12.93;;;;;;;;;;4990432;28;20050;-78
2024/01/19 08:40:43;;;;;;;28.52;14.25;;;;;;;;;;4981863;28;20479;-78
2024/01/19 08:43:10;;;;;;;28.90;14.73;;;;;;;;;;4993016;28;20050;-79
2024/01/19 08:45:37;;;;;;;26.48;14.48;;;;;;;;;;4960922;28;20054;-79
2024/01/19 08:48:05;;;;;;;25.42;14.07;;;;;;;;;;4978292;28;20054;-79
2024/01/19 08:50:32;;;;;;;30.67;14.50;;;;;;;;;;4985786;28;20065;-79
2024/01/19 08:52:59;;;;;;;25.25;13.68;;;;;;;;;;4991320;28;20506;-79
2024/01/19 08:55:26;;;;;;;27.17;14.15;;;;;;;;;;4990667;28;20085;-79
2024/01/19 08:57:53;;;;;;;26.33;13.85;;;;;;;;;;4977169;28;20086;-79
2024/01/19 09:00:20;;;;;;;31.10;15.80;;;;;;;;;;4978396;28;20051;-79
2024/01/19 09:02:48;;;;;;;23.88;14.05;;;;;;;;;;4963106;28;20051;-79
2024/01/19 09:05:28;;;;;;;26.08;14.45;;;;;;;;;;4966880;28;20517;-79
2024/01/19 09:07:55;;;;;;;33.75;14.30;;;;;;;;;;4979178;28;20054;-79
2024/01/19 09:10:23;;;;;;;24.80;14.63;;;;;;;;;;4978904;28;20081;-79
2024/01/19 09:12:50;;;;;;;24.63;13.05;;;;;;;;;;4988601;28;20486;-79
2024/01/19 09:15:17;;;;;;;25.13;14.55;;;;;;;;;;4977672;28;20162;-79
2024/01/19 09:17:44;;;;;;;24.35;13.70;;;;;;;;;;4986185;28;20526;-79
2024/01/19 09:20:11;;;;;;;24.15;12.57;;;;;;;;;;4969060;28;20510;-80
2024/01/19 09:22:38;;;;;;;25.30;13.57;;;;;;;;;;4960283;28;20492;-82
2024/01/19 09:25:11;;;;;;;25.23;14.00;;;;;;;;;;4978016;28;20062;-84
2024/01/19 09:27:38;;;;;;;24.95;14.52;;;;;;;;;;4978150;28;20061;-81
2024/01/19 09:30:06;;;;;;;23.38;14.10;;;;;;;;;;4954951;28;20175;-83
2024/01/19 09:32:33;;;;;;;28.83;13.95;;;;;;;;;;4977159;28;20478;-79
2024/01/19 09:35:00;;;;;;;25.83;14.10;;;;;;;;;;4976732;28;20102;-80
2024/01/19 09:37:27;;;;;;;26.05;14.23;;;;;;;;;;4993333;28;20050;-78
2024/01/19 09:39:53;;;;;;;25.25;14.43;;;;;;;;;;4960116;28;20116;-78
2024/01/19 09:42:27;;;;;;;24.73;13.75;;;;;;;;;;4973398;28;20125;-79
2024/01/19 09:45:04;;;;;;;21.05;12.38;;;;;;;;;;4961092;28;20046;-79
2024/01/19 09:47:55;;;;;;;22.05;12.73;;;;;;;;;;4965335;28;20180;-78
2024/01/19 09:50:26;;;;;;;28.88;15.95;;;;;;;;;;4978556;28;20053;-79
2024/01/19 09:53:00;;;;;;;24.83;15.23;;;;;;;;;;4960812;28;20073;-79
2024/01/19 09:55:28;;;;;;;25.95;13.90;;;;;;;;;;4991025;28;20086;-79
2024/01/19 09:57:56;;;;;;;28.52;14.55;;;;;;;;;;4993093;28;20058;-79
2024/01/19 10:00:23;;;;;;;26.88;14.15;;;;;;;;;;4988037;28;20140;-79
2024/01/19 10:02:53;;;;;;;26.38;14.63;;;;;;;;;;4959782;28;20062;-79
2024/01/19 10:05:21;;;;;;;24.23;13.27;;;;;;;;;;4974463;28;20092;-79
2024/01/19 10:07:49;;;;;;;31.13;15.35;;;;;;;;;;4963806;28;20079;-78
2024/01/19 10:10:16;;;;;;;24.25;14.27;;;;;;;;;;4976123;28;20050;-79
2024/01/19 10:12:43;;;;;;;23.15;12.27;;;;;;;;;;4973841;28;20061;-79
2024/01/19 10:15:14;;;;;;;23.55;13.77;;;;;;;;;;4975835;28;20101;-79
2024/01/19 10:17:42;;;;;;;30.10;15.80;;;;;;;;;;4983807;28;20167;-79
2024/01/19 10:20:10;;;;;;;27.42;15.48;;;;;;;;;;4974369;28;20141;-79
2024/01/19 10:22:37;;;;;;;29.33;15.07;;;;;;;;;;4955380;28;20085;-79
2024/01/19 10:25:05;;;;;;;22.65;14.40;;;;;;;;;;4961051;28;20050;-79
2024/01/19 10:27:50;;;;;;;29.88;14.55;;;;;;;;;;4975947;28;20062;-79
2024/01/19 10:30:24;;;;;;;28.40;15.77;;;;;;;;;;4978079;28;20054;-79
2024/01/19 10:33:06;;;;;;;26.42;14.75;;;;;;;;;;4975005;28;20141;-79
2024/01/19 10:35:34;;;;;;;26.80;15.00;;;;;;;;;;4975922;28;20268;-79
2024/01/19 10:38:07;;;;;;;23.23;13.75;;;;;;;;;;4975763;28;20089;-79
2024/01/19 10:40:34;;;;;;;25.40;13.95;;;;;;;;;;4960383;28;20101;-79
2024/01/19 10:43:01;;;;;;;25.10;14.50;;;;;;;;;;4971998;28;20058;-79
2024/01/19 10:45:30;;;;;;;25.73;13.43;;;;;;;;;;4974934;28;20117;-78
2024/01/19 10:48:00;;;;;;;24.80;13.40;;;;;;;;;;4990780;28;20054;-78
2024/01/19 10:50:28;;;;;;;27.38;14.07;;;;;;;;;;4982450;28;20050;-79
2024/01/19 10:52:57;;;;;;;26.23;14.50;;;;;;;;;;4989541;28;20057;-79
2024/01/19 10:55:25;;;;;;;25.75;14.15;;;;;;;;;;4992012;28;20077;-78
2024/01/19 10:58:04;;;;;;;24.90;14.95;;;;;;;;;;4976207;28;20086;-78
2024/01/19 11:00:35;;;;;;;26.08;15.10;;;;;;;;;;5007598;28;20089;-78
2024/01/19 11:03:03;;;;;;;21.83;13.05;;;;;;;;;;4976124;28;20062;-77
2024/01/19 11:05:31;;;;;;;20.00;12.35;;;;;;;;;;4976454;28;20089;-79
2024/01/19 11:08:00;;;;;;;22.80;13.45;;;;;;;;;;4975216;28;20058;-78
2024/01/19 11:10:28;;;;;;;20.58;12.73;;;;;;;;;;4977155;28;20092;-79
2024/01/19 11:12:56;;;;;;;28.75;14.95;;;;;;;;;;4958857;28;20494;-78
2024/01/19 11:15:23;;;;;;;24.35;13.57;;;;;;;;;;4985817;28;20059;-78
2024/01/19 11:17:50;;;;;;;24.38;13.63;;;;;;;;;;4986833;28;20058;-79
2024/01/19 11:20:17;;;;;;;22.83;13.10;;;;;;;;;;4964266;28;20066;-78
2024/01/19 11:22:44;;;;;;;25.40;15.05;;;;;;;;;;4997488;28;20082;-79
2024/01/19 11:25:13;;;;;;;25.05;15.38;;;;;;;;;;4964798;28;20089;-78
2024/01/19 11:27:49;;;;;;;28.50;14.40;;;;;;;;;;4980502;28;20088;-79
2024/01/19 11:30:57;;;;;;;24.15;14.95;;;;;;;;;;4999901;28;20471;-79
2024/01/19 11:33:24;;;;;;;27.77;15.40;;;;;;;;;;4998080;28;20482;-79
2024/01/19 11:35:51;;;;;;;28.33;15.68;;;;;;;;;;4964091;28;20299;-79
2024/01/19 11:38:38;;;;;;;32.58;16.13;;;;;;;;;;4963998;28;20108;-79
2024/01/19 11:41:05;;;;;;;28.55;15.07;;;;;;;;;;5004009;28;20560;-79
2024/01/19 11:43:36;;;;;;;22.83;14.82;;;;;;;;;;4978934;28;20461;-79
2024/01/19 11:46:04;;;;;;;25.60;14.43;;;;;;;;;;4966442;28;20088;-79
2024/01/19 11:48:43;;;;;;;20.83;14.25;;;;;;;;;;4987064;28;20122;-79
2024/01/19 11:51:30;;;;;;;20.65;13.30;;;;;;;;;;4968292;28;20058;-79
2024/01/19 11:54:01;;;;;;;23.17;14.85;;;;;;;;;;5013774;28;20453;-79
2024/01/19 11:56:28;;;;;;;23.20;15.50;;;;;;;;;;4999176;28;20050;-80
2024/01/19 11:58:55;;;;;;;25.33;14.00;;;;;;;;;;4983807;28;20054;-79
2024/01/19 12:01:22;;;;;;;23.73;14.77;;;;;;;;;;4984316;28;20054;-79
2024/01/19 12:03:53;;;;;;;22.30;14.88;;;;;;;;;;4976671;28;20072;-79
2024/01/19 12:06:23;;;;;;;24.45;15.18;;;;;;;;;;4983358;28;20054;-79
2024/01/19 12:09:05;;;;;;;21.48;13.48;;;;;;;;;;4996522;28;20062;-79
2024/01/19 12:11:33;;;;;;;23.13;14.10;;;;;;;;;;4981277;28;20113;-79
2024/01/19 12:14:03;;;;;;;28.25;14.63;;;;;;;;;;4995295;28;20050;-80
2024/01/19 12:16:32;;;;;;;21.85;12.90;;;;;;;;;;4978383;28;20714;-79
2024/01/19 12:18:59;;;;;;;22.98;12.25;;;;;;;;;;4981894;28;20054;-80
2024/01/19 12:21:27;;;;;;;17.92;10.88;;;;;;;;;;4982029;28;20109;-80
2024/01/19 12:23:57;;;;;;;19.67;12.13;;;;;;;;;;4999768;28;20194;-80
2024/01/19 12:26:24;;;;;;;18.35;11.00;;;;;;;;;;4966490;28;20391;-81
2024/01/19 12:28:52;;;;;;;20.63;11.65;;;;;;;;;;4983098;28;20085;-80
2024/01/19 12:31:24;;;;;;;17.25;11.25;;;;;;;;;;4999129;28;20064;-81
2024/01/19 12:33:53;;;;;;;20.63;12.50;;;;;;;;;;4995594;28;20047;-83
2024/01/19 12:36:23;;;;;;;21.58;11.90;;;;;;;;;;4993669;28;20050;-80
2024/01/19 12:39:05;;;;;;;21.88;12.48;;;;;;;;;;4976000;28;20046;-82
2024/01/19 12:41:33;;;;;;;23.67;12.03;;;;;;;;;;4965504;28;20086;-81
2024/01/19 12:44:00;;;;;;;16.10;10.40;;;;;;;;;;4974241;28;20097;-82
2024/01/19 12:46:27;;;;;;;16.05;9.73;;;;;;;;;;4975416;28;20081;-82
2024/01/19 12:48:58;;;;;;;13.20;7.78;;;;;;;;;;4979473;28;20089;-81
2024/01/19 12:51:25;;;;;;;14.70;8.23;;;;;;;;;;4992159;28;20057;-82
2024/01/19 12:53:54;;;;;;;19.63;10.90;;;;;;;;;;4978136;28;20050;-81
2024/01/19 12:56:25;;;;;;;15.15;9.77;;;;;;;;;;4979951;28;20058;-82
2024/01/19 12:59:21;;;;;;;14.55;8.48;;;;;;;;;;4975257;28;20054;-82
2024/01/19 13:01:50;;;;;;;15.90;9.07;;;;;;;;;;4995244;28;20092;-82
2024/01/19 13:04:17;;;;;;;13.40;8.57;;;;;;;;;;4996065;28;20070;-81
2024/01/19 13:06:44;;;;;;;13.30;8.20;;;;;;;;;;4978107;28;20075;-82
2024/01/19 13:09:15;;;;;;;14.05;7.68;;;;;;;;;;4991182;28;20069;-81
2024/01/19 13:11:42;;;;;;;12.60;8.40;;;;;;;;;;4980139;28;20057;-82
2024/01/19 13:14:09;;;;;;;16.83;9.57;;;;;;;;;;4992538;28;20054;-81
2024/01/19 13:16:55;;;;;;;13.73;8.02;;;;;;;;;;4987482;28;20082;-82
2024/01/19 13:19:23;;;;;;;15.27;8.85;;;;;;;;;;4991310;28;20066;-82
2024/01/19 13:21:51;;;;;;;18.67;10.55;;;;;;;;;;4995983;28;20058;-81
2024/01/19 13:24:18;;;;;;;15.50;10.45;;;;;;;;;;4990247;28;20473;-82
2024/01/19 13:26:45;;;;;;;13.95;8.20;;;;;;;;;;4975452;28;20487;-82
2024/01/19 13:29:12;;;;;;;12.20;8.18;;;;;;;;;;4978113;28;20057;-82
2024/01/19 13:31:39;;;;;;;13.90;8.32;;;;;;;;;;4978157;28;20051;-82
2024/01/19 13:34:06;;;;;;;15.52;8.98;;;;;;;;;;4992721;28;20105;-79
2024/01/19 13:36:34;;;;;;;14.73;9.13;;;;;;;;;;4955770;28;20050;-82
2024/01/19 13:39:00;;;;;;;11.48;7.63;;;;;;;;;;4976412;28;20129;-82
2024/01/19 13:41:27;;;;;;;11.43;8.00;;;;;;;;;;4991157;28;20565;-81
2024/01/19 13:43:54;;;;;;;15.95;8.68;;;;;;;;;;4979334;28;20141;-81
2024/01/19 13:46:27;;;;;;;13.75;8.00;;;;;;;;;;4962371;28;20113;-81
2024/01/19 13:48:54;;;;;;;15.27;9.20;;;;;;;;;;4991604;28;20139;-81
2024/01/19 13:51:21;;;;;;;13.93;8.85;;;;;;;;;;4993752;28;20121;-82
2024/01/19 13:53:49;;;;;;;19.35;9.30;;;;;;;;;;4977822;28;20085;-82
2024/01/19 13:56:15;;;;;;;14.43;9.07;;;;;;;;;;4979376;28;20074;-82
2024/01/19 13:58:42;;;;;;;15.82;8.50;;;;;;;;;;4979383;28;20046;-82
2024/01/19 14:01:09;;;;;;;16.10;9.55;;;;;;;;;;4979110;28;20112;-82
2024/01/19 14:03:36;;;;;;;15.13;9.48;;;;;;;;;;4962419;28;20060;-82
2024/01/19 14:06:03;;;;;;;19.63;10.43;;;;;;;;;;4974147;28;20057;-81
2024/01/19 14:08:30;;;;;;;17.98;9.35;;;;;;;;;;4978541;28;20050;-82
2024/01/19 14:10:57;;;;;;;15.18;9.00;;;;;;;;;;4963289;28;20093;-81
2024/01/19 14:13:24;;;;;;;16.55;9.95;;;;;;;;;;4974078;28;20054;-82
2024/01/19 14:15:51;;;;;;;16.23;8.27;;;;;;;;;;4961989;28;20105;-81
2024/01/19 14:18:18;;;;;;;12.48;8.02;;;;;;;;;;4971314;28;20057;-81
2024/01/19 14:20:46;;;;;;;11.23;7.13;;;;;;;;;;4975969;28;20502;-82
2024/01/19 14:23:13;;;;;;;12.45;7.43;;;;;;;;;;4974643;28;20050;-81